Terminal Aerodrome Forecast
Issued by NWS Mt. Holly, NJ

Home | Current Version | Previous Version | Text Only | Print | Product List | Glossary On
Versions: 1 2 3 4 5 6 7 8 9 10 11 12 13 14 15 16 17 18 19 20 21 22 23 24 25 26 27 28 29 30 31 32 33 34 35 36 37 38
000
FTUS41 KPHI 281928 AAA
TAFABE
TAF AMD
KABE 281928Z 2819/2918 VRB02KT 6SM -RA BR BKN005
     FM282100 VRB03KT 2SM SHRA BR OVC005
     FM290200 VRB03KT 2SM BR BKN003 OVC010
     FM290400 35005KT P6SM BKN008 OVC020
     FM290600 34006KT P6SM BKN015 OVC020
     FM290900 34011KT P6SM FEW020 SCT050
     FM291100 34010KT P6SM FEW200=

USA.gov is the U.S. government's official web portal to all federal, state and local government web resources and services.